Randolph, VA (23962)

2:16 AM EST on December 21, 2014 (GMT -0500)
The Cove | Change Station
CLOSE
Current Station
Personal Weather Station
Location: Clover, VA
Elevation: 449 ft
Nearby Weather Stations

Elev 449 ft 36.94 °N, 78.79 °W | Updated 3 seconds ago

Overcast
Overcast
36.4 °F
Feels Like 36 °F
N
0.0
Wind Variable Wind from North
Gusts 0.0 mph

Today
High -- | Low -- °F
--% Chance of Precip.
Yesterday
High -- | Low -- °F
Precip. -- in
7:24 AM 5:01 PM
Waning Crescent, 1% visible
Pressure 30.26 in
Visibility 10.0 miles
Clouds Overcast 6500 ft
Windchill 36 °F
Dew Point 30 °F
Humidity 79%
Rainfall 0.00 in
Snow Depth Not available.
UV 0 out of 12
Pollen .10 out of 12
Air Quality Not available.
Flu Activity Not available.
METAR KFVX 210655Z AUTO 00000KT 10SM OVC065 02/M03 A3026 RMK AO2 T00231028

More Conditions Fewer Conditions

Pressure 30.26 in
Visibility 10.0 miles
Clouds Overcast 6500 ft
Windchill 36 °F
Dew Point 30 °F
Humidity 79%
Rainfall 0.00 in
Snow Depth Not available.
UV 0 out of 12
Pollen .10 out of 12
Air Quality Not available.
Flu Activity Not available.
METAR KFVX 210655Z AUTO 00000KT 10SM OVC065 02/M03 A3026 RMK AO2 T00231028

More Conditions Fewer Conditions

10-Day Weather Forecast

Almanac

Astronomy

Dec. 21, 2014 Rise Set
Actual Time
Civil Twilight
Nautical Twilight
Astronomical Twilight
Moon
Length of Visible Light
Length of Day
Tomorrow will be .
, % of the Moon is Illuminated

Today's Extremes

State Highs State Lows

Community

WunderPhotos

Upload Photos

1,779,362 photos uploaded!

WunderBlogs® & News

Nearby

Air Quality

  Air Quality AQ Index Pollutant
Not available.

Snow Depth

Station Depth Elevation

Earthquake Activity

City Distance Mag. Time & Date
Minimum magnitude displayed is 2.5.

Coastal Water Temperatures

Place Temperature

Nearby Weather Stations